sensor_id;sensor_type;location;lat;lon;timestamp;pressure;altitude;pressure_sealevel;temperature;humidity
59417;BME280;45222;52.458;20.914;2023-04-19T00:41:25;101109.27;;;7.84;84.55
59417;BME280;45222;52.458;20.914;2023-04-19T00:45:14;101103.76;;;7.72;84.96
59417;BME280;45222;52.458;20.914;2023-04-19T00:49:02;101092.27;;;7.64;84.91
59417;BME280;45222;52.458;20.914;2023-04-19T00:52:52;101081.04;;;7.60;84.71
59417;BME280;45222;52.458;20.914;2023-04-19T00:56:41;101071.22;;;7.56;85.25
59417;BME280;45222;52.458;20.914;2023-04-19T01:00:30;101065.33;;;7.50;85.68
59417;BME280;45222;52.458;20.914;2023-04-19T01:04:18;101060.48;;;7.46;85.95
59417;BME280;45222;52.458;20.914;2023-04-19T01:08:08;101056.95;;;7.38;86.19
59417;BME280;45222;52.458;20.914;2023-04-19T01:11:56;101047.18;;;7.33;86.13
59417;BME280;45222;52.458;20.914;2023-04-19T01:15:44;101038.77;;;7.30;86.27
59417;BME280;45222;52.458;20.914;2023-04-19T01:19:32;101039.35;;;7.27;86.35
59417;BME280;45222;52.458;20.914;2023-04-19T01:23:20;101037.16;;;7.22;86.41
59417;BME280;45222;52.458;20.914;2023-04-19T01:27:08;101033.98;;;7.15;86.94
59417;BME280;45222;52.458;20.914;2023-04-19T01:30:56;101030.64;;;7.07;87.54
59417;BME280;45222;52.458;20.914;2023-04-19T01:34:44;101026.03;;;6.99;87.64
59417;BME280;45222;52.458;20.914;2023-04-19T01:38:33;101021.67;;;6.96;87.47
59417;BME280;45222;52.458;20.914;2023-04-19T01:42:21;101017.16;;;6.93;87.96
59417;BME280;45222;52.458;20.914;2023-04-19T01:46:09;101017.95;;;6.89;88.04
59417;BME280;45222;52.458;20.914;2023-04-19T01:49:57;101015.70;;;6.87;87.85
59417;BME280;45222;52.458;20.914;2023-04-19T01:53:45;101015.71;;;6.87;87.95
59417;BME280;45222;52.458;20.914;2023-04-19T01:57:37;101015.91;;;6.85;87.78
59417;BME280;45222;52.458;20.914;2023-04-19T02:01:25;101011.98;;;6.80;87.79
59417;BME280;45222;52.458;20.914;2023-04-19T02:05:13;101016.27;;;6.77;88.35
59417;BME280;45222;52.458;20.914;2023-04-19T02:09:01;101013.64;;;6.77;88.16
59417;BME280;45222;52.458;20.914;2023-04-19T02:12:49;101012.54;;;6.78;87.68
59417;BME280;45222;52.458;20.914;2023-04-19T02:16:37;101010.16;;;6.82;87.68
59417;BME280;45222;52.458;20.914;2023-04-19T02:20:25;101008.37;;;6.83;87.44
59417;BME280;45222;52.458;20.914;2023-04-19T02:24:12;101004.49;;;6.82;87.06
59417;BME280;45222;52.458;20.914;2023-04-19T02:28:00;101004.07;;;6.85;87.04
59417;BME280;45222;52.458;20.914;2023-04-19T02:31:48;101004.54;;;6.88;86.99
59417;BME280;45222;52.458;20.914;2023-04-19T02:35:37;101003.16;;;6.87;87.00
59417;BME280;45222;52.458;20.914;2023-04-19T02:39:25;101000.36;;;6.85;87.10
59417;BME280;45222;52.458;20.914;2023-04-19T02:43:13;100994.55;;;6.84;87.13
59417;BME280;45222;52.458;20.914;2023-04-19T02:47:00;100989.73;;;6.87;87.14
59417;BME280;45222;52.458;20.914;2023-04-19T02:50:48;100986.15;;;6.88;87.19
59417;BME280;45222;52.458;20.914;2023-04-19T02:54:36;100979.45;;;6.88;87.07
59417;BME280;45222;52.458;20.914;2023-04-19T02:58:25;100977.41;;;6.83;87.13
59417;BME280;45222;52.458;20.914;2023-04-19T03:02:13;100970.80;;;6.79;87.44
59417;BME280;45222;52.458;20.914;2023-04-19T03:06:01;100967.27;;;6.79;87.35
59417;BME280;45222;52.458;20.914;2023-04-19T03:09:49;100964.26;;;6.80;87.21
59417;BME280;45222;52.458;20.914;2023-04-19T03:13:37;100965.69;;;6.78;87.22
59417;BME280;45222;52.458;20.914;2023-04-19T03:17:26;100963.27;;;6.76;87.22
59417;BME280;45222;52.458;20.914;2023-04-19T03:21:14;100960.08;;;6.76;87.21
59417;BME280;45222;52.458;20.914;2023-04-19T03:25:02;100954.09;;;6.76;87.41
59417;BME280;45222;52.458;20.914;2023-04-19T03:28:50;100951.80;;;6.75;87.43
59417;BME280;45222;52.458;20.914;2023-04-19T03:32:38;100941.40;;;6.73;87.67
59417;BME280;45222;52.458;20.914;2023-04-19T03:36:26;100943.88;;;6.74;87.49
59417;BME280;45222;52.458;20.914;2023-04-19T03:40:15;100942.13;;;6.73;87.59
59417;BME280;45222;52.458;20.914;2023-04-19T03:44:03;100936.83;;;6.73;87.43
59417;BME280;45222;52.458;20.914;2023-04-19T03:47:52;100933.09;;;6.74;87.45
59417;BME280;45222;52.458;20.914;2023-04-19T03:51:40;100928.68;;;6.73;87.68
59417;BME280;45222;52.458;20.914;2023-04-19T03:55:28;100928.70;;;6.73;87.79
59417;BME280;45222;52.458;20.914;2023-04-19T03:59:16;100924.86;;;6.70;87.91
59417;BME280;45222;52.458;20.914;2023-04-19T04:03:04;100922.58;;;6.70;87.86
59417;BME280;45222;52.458;20.914;2023-04-19T04:06:52;100919.66;;;6.74;87.88
59417;BME280;45222;52.458;20.914;2023-04-19T04:10:40;100919.23;;;6.78;87.84
59417;BME280;45222;52.458;20.914;2023-04-19T04:14:28;100917.30;;;6.76;87.97
59417;BME280;45222;52.458;20.914;2023-04-19T04:18:16;100915.11;;;6.72;88.02
59417;BME280;45222;52.458;20.914;2023-04-19T04:22:05;100912.63;;;6.72;88.09
59417;BME280;45222;52.458;20.914;2023-04-19T04:25:58;100916.81;;;6.75;88.13
59417;BME280;45222;52.458;20.914;2023-04-19T04:29:47;100912.81;;;6.79;88.11
59417;BME280;45222;52.458;20.914;2023-04-19T04:33:35;100912.20;;;6.82;88.12
59417;BME280;45222;52.458;20.914;2023-04-19T04:37:23;100911.23;;;6.79;88.04
59417;BME280;45222;52.458;20.914;2023-04-19T04:41:11;100906.87;;;6.76;88.06
59417;BME280;45222;52.458;20.914;2023-04-19T04:44:59;100908.13;;;6.76;88.06
59417;BME280;45222;52.458;20.914;2023-04-19T04:48:47;100909.88;;;6.76;88.18
59417;BME280;45222;52.458;20.914;2023-04-19T04:52:35;100903.97;;;6.72;88.20
59417;BME280;45222;52.458;20.914;2023-04-19T04:56:23;100906.06;;;6.74;88.49
59417;BME280;45222;52.458;20.914;2023-04-19T05:00:13;100899.98;;;6.76;88.31
59417;BME280;45222;52.458;20.914;2023-04-19T05:04:01;100899.17;;;6.73;88.48
59417;BME280;45222;52.458;20.914;2023-04-19T05:07:49;100898.04;;;6.69;88.56
59417;BME280;45222;52.458;20.914;2023-04-19T05:11:37;100891.48;;;6.69;88.67
59417;BME280;45222;52.458;20.914;2023-04-19T05:15:25;100892.66;;;6.72;88.86
59417;BME280;45222;52.458;20.914;2023-04-19T05:19:12;100886.01;;;6.77;88.90
59417;BME280;45222;52.458;20.914;2023-04-19T05:23:01;100879.59;;;6.79;89.08
59417;BME280;45222;52.458;20.914;2023-04-19T05:26:49;100872.61;;;6.75;89.33
59417;BME280;45222;52.458;20.914;2023-04-19T05:30:36;100870.64;;;6.76;89.59
59417;BME280;45222;52.458;20.914;2023-04-19T05:38:33;100869.14;;;6.87;89.61
59417;BME280;45222;52.458;20.914;2023-04-19T05:42:21;100873.10;;;6.91;89.49
59417;BME280;45222;52.458;20.914;2023-04-19T05:46:09;100872.75;;;6.98;89.61
59417;BME280;45222;52.458;20.914;2023-04-19T05:49:57;100874.24;;;7.02;89.46
59417;BME280;45222;52.458;20.914;2023-04-19T05:53:44;100874.56;;;7.03;89.43
59417;BME280;45222;52.458;20.914;2023-04-19T05:57:32;100873.25;;;7.06;89.43
59417;BME280;45222;52.458;20.914;2023-04-19T06:01:20;100868.89;;;7.10;89.35
59417;BME280;45222;52.458;20.914;2023-04-19T06:05:09;100867.05;;;7.13;89.44
59417;BME280;45222;52.458;20.914;2023-04-19T06:08:56;100872.77;;;7.11;89.38
59417;BME280;45222;52.458;20.914;2023-04-19T06:12:44;100871.03;;;7.09;89.25
59417;BME280;45222;52.458;20.914;2023-04-19T06:16:32;100871.33;;;7.11;89.39
59417;BME280;45222;52.458;20.914;2023-04-19T06:20:20;100869.52;;;7.14;89.36
59417;BME280;45222;52.458;20.914;2023-04-19T06:24:08;100867.98;;;7.18;89.52
59417;BME280;45222;52.458;20.914;2023-04-19T06:27:56;100864.02;;;7.28;89.33
59417;BME280;45222;52.458;20.914;2023-04-19T06:31:44;100861.04;;;7.40;89.15
59417;BME280;45222;52.458;20.914;2023-04-19T06:35:32;100861.20;;;7.47;88.91
59417;BME280;45222;52.458;20.914;2023-04-19T06:39:20;100861.11;;;7.56;88.72
59417;BME280;45222;52.458;20.914;2023-04-19T06:43:08;100862.38;;;7.68;88.48
59417;BME280;45222;52.458;20.914;2023-04-19T06:46:57;100861.19;;;7.78;88.35
59417;BME280;45222;52.458;20.914;2023-04-19T06:50:45;100861.57;;;7.90;88.21
59417;BME280;45222;52.458;20.914;2023-04-19T06:54:33;100863.53;;;8.02;88.08
59417;BME280;45222;52.458;20.914;2023-04-19T06:58:21;100858.38;;;8.02;87.90
59417;BME280;45222;52.458;20.914;2023-04-19T07:02:09;100857.30;;;7.97;87.96
59417;BME280;45222;52.458;20.914;2023-04-19T07:05:57;100859.22;;;7.91;88.06
59417;BME280;45222;52.458;20.914;2023-04-19T07:09:45;100857.27;;;7.92;88.11
59417;BME280;45222;52.458;20.914;2023-04-19T07:13:33;100853.14;;;8.05;88.06
59417;BME280;45222;52.458;20.914;2023-04-19T07:17:25;100853.84;;;8.23;87.81
59417;BME280;45222;52.458;20.914;2023-04-19T07:21:12;100859.15;;;8.34;87.65
59417;BME280;45222;52.458;20.914;2023-04-19T07:25:00;100861.60;;;8.54;87.44
59417;BME280;45222;52.458;20.914;2023-04-19T07:28:48;100858.05;;;8.70;87.64
59417;BME280;45222;52.458;20.914;2023-04-19T07:32:40;100858.90;;;8.88;87.30
59417;BME280;45222;52.458;20.914;2023-04-19T07:36:31;100860.71;;;9.02;86.68
59417;BME280;45222;52.458;20.914;2023-04-19T07:40:21;100858.77;;;9.02;85.94
59417;BME280;45222;52.458;20.914;2023-04-19T07:44:09;100862.61;;;8.98;85.35
59417;BME280;45222;52.458;20.914;2023-04-19T07:47:57;100861.67;;;8.95;84.91
59417;BME280;45222;52.458;20.914;2023-04-19T07:51:45;100864.84;;;8.90;84.54
59417;BME280;45222;52.458;20.914;2023-04-19T07:55:34;100865.41;;;8.89;84.56
59417;BME280;45222;52.458;20.914;2023-04-19T07:59:21;100861.73;;;8.88;84.37
59417;BME280;45222;52.458;20.914;2023-04-19T08:03:08;100861.48;;;8.84;84.22
59417;BME280;45222;52.458;20.914;2023-04-19T08:06:57;100863.07;;;8.90;83.95
59417;BME280;45222;52.458;20.914;2023-04-19T08:10:45;100861.33;;;9.05;83.66
59417;BME280;45222;52.458;20.914;2023-04-19T08:14:33;100849.23;;;9.41;82.66
59417;BME280;45222;52.458;20.914;2023-04-19T08:18:21;100850.64;;;9.71;81.91
59417;BME280;45222;52.458;20.914;2023-04-19T08:22:10;100849.16;;;9.96;80.48
59417;BME280;45222;52.458;20.914;2023-04-19T08:25:58;100849.52;;;10.06;79.72
59417;BME280;45222;52.458;20.914;2023-04-19T08:29:46;100846.98;;;10.07;78.69
59417;BME280;45222;52.458;20.914;2023-04-19T08:33:34;100849.11;;;10.16;78.09
59417;BME280;45222;52.458;20.914;2023-04-19T08:37:22;100845.64;;;10.42;79.08
59417;BME280;45222;52.458;20.914;2023-04-19T08:41:11;100848.13;;;10.68;78.32
59417;BME280;45222;52.458;20.914;2023-04-19T08:45:01;100847.52;;;10.75;76.38
59417;BME280;45222;52.458;20.914;2023-04-19T08:49:00;100846.83;;;10.74;76.36
59417;BME280;45222;52.458;20.914;2023-04-19T08:52:56;100849.72;;;10.82;75.90
59417;BME280;45222;52.458;20.914;2023-04-19T08:56:45;100850.90;;;10.87;75.80
59417;BME280;45222;52.458;20.914;2023-04-19T09:00:34;100851.83;;;10.91;75.52
59417;BME280;45222;52.458;20.914;2023-04-19T09:04:24;100852.05;;;10.98;75.18
59417;BME280;45222;52.458;20.914;2023-04-19T09:08:23;100852.55;;;10.99;74.01
59417;BME280;45222;52.458;20.914;2023-04-19T09:12:18;100850.77;;;11.03;74.30
59417;BME280;45222;52.458;20.914;2023-04-19T09:16:07;100851.67;;;11.15;74.57
59417;BME280;45222;52.458;20.914;2023-04-19T09:20:09;100848.66;;;11.31;74.28
59417;BME280;45222;52.458;20.914;2023-04-19T09:23:58;100848.44;;;11.41;73.17
59417;BME280;45222;52.458;20.914;2023-04-19T09:27:46;100847.46;;;11.34;72.49
59417;BME280;45222;52.458;20.914;2023-04-19T09:31:35;100851.42;;;11.38;73.28
59417;BME280;45222;52.458;20.914;2023-04-19T09:35:40;100856.54;;;11.43;73.84
59417;BME280;45222;52.458;20.914;2023-04-19T09:39:32;100861.94;;;11.46;73.38
59417;BME280;45222;52.458;20.914;2023-04-19T09:43:25;100861.89;;;11.42;72.59
59417;BME280;45222;52.458;20.914;2023-04-19T09:47:23;100862.55;;;11.36;72.21
59417;BME280;45222;52.458;20.914;2023-04-19T09:51:11;100865.17;;;11.29;73.09
59417;BME280;45222;52.458;20.914;2023-04-19T09:55:01;100863.77;;;11.40;73.03
59417;BME280;45222;52.458;20.914;2023-04-19T09:58:49;100865.49;;;11.45;72.33
59417;BME280;45222;52.458;20.914;2023-04-19T10:02:38;100863.75;;;11.41;72.33
59417;BME280;45222;52.458;20.914;2023-04-19T10:06:27;100868.44;;;11.27;71.76
59417;BME280;45222;52.458;20.914;2023-04-19T10:10:15;100867.64;;;11.17;71.78
59417;BME280;45222;52.458;20.914;2023-04-19T10:14:06;100867.44;;;11.09;72.06
59417;BME280;45222;52.458;20.914;2023-04-19T10:17:54;100870.61;;;11.01;72.14
59417;BME280;45222;52.458;20.914;2023-04-19T10:21:43;100870.22;;;10.89;71.99
59417;BME280;45222;52.458;20.914;2023-04-19T10:25:34;100872.65;;;10.82;72.68
59417;BME280;45222;52.458;20.914;2023-04-19T10:29:54;100882.55;;;10.79;73.28
59417;BME280;45222;52.458;20.914;2023-04-19T10:33:43;100881.67;;;10.79;73.03
59417;BME280;45222;52.458;20.914;2023-04-19T10:37:32;100882.59;;;10.78;73.22
59417;BME280;45222;52.458;20.914;2023-04-19T10:41:23;100887.55;;;10.74;72.94
59417;BME280;45222;52.458;20.914;2023-04-19T10:45:34;100890.21;;;10.70;73.45
59417;BME280;45222;52.458;20.914;2023-04-19T10:49:27;100889.97;;;10.71;73.24
59417;BME280;45222;52.458;20.914;2023-04-19T10:53:46;100882.02;;;10.79;72.93
59417;BME280;45222;52.458;20.914;2023-04-19T10:58:04;100878.84;;;11.04;73.30
59417;BME280;45222;52.458;20.914;2023-04-19T11:01:54;100884.30;;;11.35;71.76
59417;BME280;45222;52.458;20.914;2023-04-19T11:09:59;100886.03;;;12.00;70.86
59417;BME280;45222;52.458;20.914;2023-04-19T11:13:49;100881.09;;;12.19;69.07
59417;BME280;45222;52.458;20.914;2023-04-19T11:17:37;100885.07;;;12.25;69.55
59417;BME280;45222;52.458;20.914;2023-04-19T11:21:24;100884.31;;;12.30;68.92
59417;BME280;45222;52.458;20.914;2023-04-19T11:25:14;100886.11;;;12.34;68.90
59417;BME280;45222;52.458;20.914;2023-04-19T11:29:12;100888.10;;;12.37;68.31
59417;BME280;45222;52.458;20.914;2023-04-19T11:33:16;100892.02;;;12.33;68.58
59417;BME280;45222;52.458;20.914;2023-04-19T11:37:16;100894.86;;;12.29;67.88
59417;BME280;45222;52.458;20.914;2023-04-19T11:41:05;100892.80;;;12.28;68.20
59417;BME280;45222;52.458;20.914;2023-04-19T11:44:55;100887.41;;;12.32;68.08
59417;BME280;45222;52.458;20.914;2023-04-19T11:48:52;100881.83;;;12.45;67.70
59417;BME280;45222;52.458;20.914;2023-04-19T11:52:40;100880.52;;;12.54;67.11
59417;BME280;45222;52.458;20.914;2023-04-19T11:56:28;100874.98;;;12.61;67.24
59417;BME280;45222;52.458;20.914;2023-04-19T12:00:25;100880.95;;;12.85;66.81
59417;BME280;45222;52.458;20.914;2023-04-19T12:04:14;100882.59;;;13.09;66.08
59417;BME280;45222;52.458;20.914;2023-04-19T12:08:04;100887.23;;;13.24;64.69
59417;BME280;45222;52.458;20.914;2023-04-19T12:11:53;100890.91;;;13.46;65.25
59417;BME280;45222;52.458;20.914;2023-04-19T12:15:41;100886.31;;;13.66;64.12
59417;BME280;45222;52.458;20.914;2023-04-19T12:19:35;100892.02;;;13.83;64.16
59417;BME280;45222;52.458;20.914;2023-04-19T12:23:23;100892.80;;;13.75;63.75
59417;BME280;45222;52.458;20.914;2023-04-19T12:27:12;100895.65;;;13.69;63.84
59417;BME280;45222;52.458;20.914;2023-04-19T12:31:04;100895.72;;;13.54;63.53
59417;BME280;45222;52.458;20.914;2023-04-19T12:34:52;100903.04;;;13.39;64.12
59417;BME280;45222;52.458;20.914;2023-04-19T12:38:40;100903.82;;;13.31;64.12
59417;BME280;45222;52.458;20.914;2023-04-19T12:42:28;100906.30;;;13.17;64.48
59417;BME280;45222;52.458;20.914;2023-04-19T12:46:15;100911.89;;;13.05;64.49
59417;BME280;45222;52.458;20.914;2023-04-19T12:50:04;100912.89;;;12.93;64.37
59417;BME280;45222;52.458;20.914;2023-04-19T12:53:52;100906.15;;;12.98;64.82
59417;BME280;45222;52.458;20.914;2023-04-19T12:57:39;100902.06;;;13.12;64.55
59417;BME280;45222;52.458;20.914;2023-04-19T13:01:27;100899.19;;;13.24;64.88
59417;BME280;45222;52.458;20.914;2023-04-19T13:05:15;100904.83;;;13.36;64.01
59417;BME280;45222;52.458;20.914;2023-04-19T13:09:03;100900.73;;;13.53;64.28
59417;BME280;45222;52.458;20.914;2023-04-19T13:12:51;100899.48;;;13.64;64.05
59417;BME280;45222;52.458;20.914;2023-04-19T13:16:39;100900.63;;;13.65;63.50
59417;BME280;45222;52.458;20.914;2023-04-19T13:20:27;100903.63;;;13.52;62.83
59417;BME280;45222;52.458;20.914;2023-04-19T13:24:14;100907.86;;;13.39;63.12
59417;BME280;45222;52.458;20.914;2023-04-19T13:28:02;100899.77;;;13.30;63.32
59417;BME280;45222;52.458;20.914;2023-04-19T13:31:50;100895.15;;;13.29;63.35
59417;BME280;45222;52.458;20.914;2023-04-19T13:35:38;100894.24;;;13.26;63.29
59417;BME280;45222;52.458;20.914;2023-04-19T13:39:25;100896.71;;;13.27;63.48
59417;BME280;45222;52.458;20.914;2023-04-19T13:43:13;100900.31;;;13.36;64.09
59417;BME280;45222;52.458;20.914;2023-04-19T13:47:01;100899.03;;;13.44;63.77
59417;BME280;45222;52.458;20.914;2023-04-19T13:50:50;100897.94;;;13.45;63.23
59417;BME280;45222;52.458;20.914;2023-04-19T13:54:40;100903.51;;;13.34;62.72
59417;BME280;45222;52.458;20.914;2023-04-19T13:58:27;100898.30;;;13.23;63.29
59417;BME280;45222;52.458;20.914;2023-04-19T14:02:15;100894.26;;;13.19;63.41
59417;BME280;45222;52.458;20.914;2023-04-19T14:06:04;100887.62;;;13.23;63.46
59417;BME280;45222;52.458;20.914;2023-04-19T14:09:52;100885.68;;;13.40;63.04
59417;BME280;45222;52.458;20.914;2023-04-19T14:13:40;100883.17;;;13.47;62.90
59417;BME280;45222;52.458;20.914;2023-04-19T14:17:28;100876.98;;;13.53;62.61
59417;BME280;45222;52.458;20.914;2023-04-19T14:21:16;100876.77;;;13.60;62.37
59417;BME280;45222;52.458;20.914;2023-04-19T14:25:05;100876.77;;;13.84;62.13
59417;BME280;45222;52.458;20.914;2023-04-19T14:28:54;100878.58;;;14.13;61.79
59417;BME280;45222;52.458;20.914;2023-04-19T14:32:43;100872.10;;;14.30;60.55
59417;BME280;45222;52.458;20.914;2023-04-19T14:36:34;100866.46;;;14.54;60.73
59417;BME280;45222;52.458;20.914;2023-04-19T14:40:22;100864.95;;;14.90;60.57
59417;BME280;45222;52.458;20.914;2023-04-19T14:44:11;100856.60;;;14.98;59.53
59417;BME280;45222;52.458;20.914;2023-04-19T14:47:59;100860.02;;;14.98;59.52
59417;BME280;45222;52.458;20.914;2023-04-19T14:51:49;100863.40;;;14.77;59.91
59417;BME280;45222;52.458;20.914;2023-04-19T14:55:39;100861.77;;;14.64;60.62
59417;BME280;45222;52.458;20.914;2023-04-19T14:59:30;100866.58;;;14.65;60.41
59417;BME280;45222;52.458;20.914;2023-04-19T15:03:18;100867.41;;;14.53;59.97
59417;BME280;45222;52.458;20.914;2023-04-19T15:07:07;100868.58;;;14.29;59.52
59417;BME280;45222;52.458;20.914;2023-04-19T15:10:57;100868.91;;;14.14;60.41
59417;BME280;45222;52.458;20.914;2023-04-19T15:14:45;100874.37;;;14.09;60.29
59417;BME280;45222;52.458;20.914;2023-04-19T15:18:32;100885.31;;;13.95;60.37
59417;BME280;45222;52.458;20.914;2023-04-19T15:22:21;100907.31;;;13.84;61.31
59417;BME280;45222;52.458;20.914;2023-04-19T15:26:08;100927.07;;;13.59;62.61
59417;BME280;45222;52.458;20.914;2023-04-19T15:29:56;100938.83;;;13.09;65.78
59417;BME280;45222;52.458;20.914;2023-04-19T15:33:48;100946.95;;;12.45;70.09
59417;BME280;45222;52.458;20.914;2023-04-19T15:37:36;100944.94;;;11.94;71.63
59417;BME280;45222;52.458;20.914;2023-04-19T15:41:26;100948.38;;;11.57;70.67
59417;BME280;45222;52.458;20.914;2023-04-19T15:45:15;100942.52;;;11.31;72.52
59417;BME280;45222;52.458;20.914;2023-04-19T15:49:04;100934.34;;;11.18;73.35
59417;BME280;45222;52.458;20.914;2023-04-19T15:52:52;100936.31;;;11.09;74.05
59417;BME280;45222;52.458;20.914;2023-04-19T15:56:40;100933.38;;;10.98;74.10
59417;BME280;45222;52.458;20.914;2023-04-19T16:00:30;100937.89;;;10.96;74.95
59417;BME280;45222;52.458;20.914;2023-04-19T16:04:19;100949.50;;;10.95;75.76
59417;BME280;45222;52.458;20.914;2023-04-19T16:08:09;100948.14;;;10.81;76.77
59417;BME280;45222;52.458;20.914;2023-04-19T16:12:06;100949.02;;;10.54;77.46
59417;BME280;45222;52.458;20.914;2023-04-19T16:15:59;100954.56;;;10.29;77.98
59417;BME280;45222;52.458;20.914;2023-04-19T16:20:16;100958.55;;;10.22;78.81
59417;BME280;45222;52.458;20.914;2023-04-19T16:24:28;100964.50;;;10.29;79.55
59417;BME280;45222;52.458;20.914;2023-04-19T16:28:17;100964.98;;;10.36;80.04
59417;BME280;45222;52.458;20.914;2023-04-19T16:32:06;100966.27;;;10.34;80.09
59417;BME280;45222;52.458;20.914;2023-04-19T16:35:55;100970.63;;;10.32;80.12
59417;BME280;45222;52.458;20.914;2023-04-19T16:39:43;100971.66;;;10.24;80.21
59417;BME280;45222;52.458;20.914;2023-04-19T16:43:31;100976.45;;;10.13;80.31
59417;BME280;45222;52.458;20.914;2023-04-19T16:47:19;100975.40;;;10.04;81.08
59417;BME280;45222;52.458;20.914;2023-04-19T16:51:08;100984.76;;;9.91;81.55
59417;BME280;45222;52.458;20.914;2023-04-19T16:54:57;100984.73;;;9.81;81.74
59417;BME280;45222;52.458;20.914;2023-04-19T16:58:47;100985.39;;;9.77;82.67
59417;BME280;45222;52.458;20.914;2023-04-19T17:02:35;100989.45;;;9.78;82.55
59417;BME280;45222;52.458;20.914;2023-04-19T17:06:23;100990.67;;;9.79;82.98
59417;BME280;45222;52.458;20.914;2023-04-19T17:10:12;100990.52;;;9.78;83.05
59417;BME280;45222;52.458;20.914;2023-04-19T17:14:00;100994.46;;;9.77;83.04
59417;BME280;45222;52.458;20.914;2023-04-19T17:17:48;100994.86;;;9.76;83.15
59417;BME280;45222;52.458;20.914;2023-04-19T17:21:35;100993.27;;;9.81;83.64
59417;BME280;45222;52.458;20.914;2023-04-19T17:25:23;100999.36;;;9.89;83.58
59417;BME280;45222;52.458;20.914;2023-04-19T17:29:11;101002.48;;;9.86;83.46
59417;BME280;45222;52.458;20.914;2023-04-19T17:32:59;101002.73;;;9.84;83.55
59417;BME280;45222;52.458;20.914;2023-04-19T17:36:47;101005.34;;;9.76;83.22
59417;BME280;45222;52.458;20.914;2023-04-19T17:40:35;101014.27;;;9.64;83.26
59417;BME280;45222;52.458;20.914;2023-04-19T17:44:22;101024.34;;;9.50;83.60
59417;BME280;45222;52.458;20.914;2023-04-19T17:48:10;101026.15;;;9.32;84.08
59417;BME280;45222;52.458;20.914;2023-04-19T17:51:59;101027.73;;;9.22;84.13
59417;BME280;45222;52.458;20.914;2023-04-19T17:55:46;101036.17;;;9.19;84.09
59417;BME280;45222;52.458;20.914;2023-04-19T17:59:35;101040.34;;;9.16;84.15
59417;BME280;45222;52.458;20.914;2023-04-19T18:03:23;101042.54;;;9.14;84.08
59417;BME280;45222;52.458;20.914;2023-04-19T18:07:11;101045.69;;;9.16;84.10
59417;BME280;45222;52.458;20.914;2023-04-19T18:10:59;101048.12;;;9.17;84.28
59417;BME280;45222;52.458;20.914;2023-04-19T18:14:47;101047.84;;;9.15;83.87
59417;BME280;45222;52.458;20.914;2023-04-19T18:18:35;101052.77;;;9.05;84.01
59417;BME280;45222;52.458;20.914;2023-04-19T18:22:24;101052.02;;;8.95;84.00
59417;BME280;45222;52.458;20.914;2023-04-19T18:26:14;101048.39;;;8.91;83.94
59417;BME280;45222;52.458;20.914;2023-04-19T18:30:02;101048.23;;;8.91;83.92
59417;BME280;45222;52.458;20.914;2023-04-19T18:33:50;101053.08;;;8.89;84.13
59417;BME280;45222;52.458;20.914;2023-04-19T18:37:38;101059.53;;;8.80;84.19
59417;BME280;45222;52.458;20.914;2023-04-19T18:41:25;101056.36;;;8.62;85.01
59417;BME280;45222;52.458;20.914;2023-04-19T18:45:14;101055.23;;;8.58;85.02
59417;BME280;45222;52.458;20.914;2023-04-19T18:49:02;101061.77;;;8.65;84.80
59417;BME280;45222;52.458;20.914;2023-04-19T18:52:50;101066.23;;;8.70;84.84
59417;BME280;45222;52.458;20.914;2023-04-19T18:56:38;101067.49;;;8.69;84.95
59417;BME280;45222;52.458;20.914;2023-04-19T19:00:26;101069.98;;;8.75;84.77
59417;BME280;45222;52.458;20.914;2023-04-19T19:04:20;101071.27;;;8.79;84.76
59417;BME280;45222;52.458;20.914;2023-04-19T19:08:08;101077.27;;;8.87;84.80
59417;BME280;45222;52.458;20.914;2023-04-19T19:11:56;101076.69;;;8.94;84.55
59417;BME280;45222;52.458;20.914;2023-04-19T19:15:44;101080.57;;;9.01;84.21
59417;BME280;45222;52.458;20.914;2023-04-19T19:19:32;101079.42;;;9.04;83.92
59417;BME280;45222;52.458;20.914;2023-04-19T19:23:20;101079.37;;;9.05;83.91
